Time;durP1;ratioP1;P1;durP2;ratioP2;P2;SDS_P1;SDS_P2;PMS_P1;PMS_P2;Temp;Humidity;BMP_temperature;BMP_pressure;BME280_temperature;BME280_humidity;BME280_pressure;Samples;Min_cycle;Max_cycle;Signal;HPM_P1;HPM_P2
2022/11/04 00:01:24;;;;;;;2.87;2.67;;;;;;;;;;5033226;28;20242;-82
2022/11/04 00:03:52;;;;;;;3.30;3.00;;;;;;;;;;5036252;28;20210;-84
2022/11/04 00:06:19;;;;;;;3.30;2.63;;;;;;;;;;5035096;28;20837;-83
2022/11/04 00:08:50;;;;;;;2.43;2.23;;;;;;;;;;5035932;28;20222;-83
2022/11/04 00:14:02;;;;;;;3.10;2.80;;;;;;;;;;5033706;28;20213;-84
2022/11/04 00:19:14;;;;;;;3.50;3.20;;;;;;;;;;5034603;28;20221;-84
2022/11/04 00:30:02;;;;;;;2.30;2.10;;;;;;;;;;5056092;28;20225;-85
2022/11/04 00:35:14;;;;;;;3.67;2.00;;;;;;;;;;5022081;28;20186;-85
2022/11/04 00:37:42;;;;;;;2.50;2.23;;;;;;;;;;5033198;28;20243;-84
2022/11/04 00:40:12;;;;;;;2.47;2.20;;;;;;;;;;5035684;28;20231;-84
2022/11/04 00:42:39;;;;;;;2.23;2.10;;;;;;;;;;5038696;28;20241;-85
2022/11/04 00:45:07;;;;;;;2.50;2.20;;;;;;;;;;5040664;28;20222;-84
2022/11/04 00:47:34;;;;;;;2.00;1.90;;;;;;;;;;5049029;28;20237;-85
2022/11/04 00:50:01;;;;;;;2.57;2.07;;;;;;;;;;5020589;28;20243;-84
2022/11/04 00:52:28;;;;;;;2.37;2.00;;;;;;;;;;5017415;28;20715;-84
2022/11/04 00:54:55;;;;;;;2.10;1.93;;;;;;;;;;5032805;28;20210;-83
2022/11/04 00:57:24;;;;;;;2.27;2.07;;;;;;;;;;5035380;28;20239;-84
2022/11/04 00:59:51;;;;;;;2.37;1.90;;;;;;;;;;5035411;28;20730;-84
2022/11/04 01:02:18;;;;;;;1.93;1.83;;;;;;;;;;5027278;28;20231;-84
2022/11/04 01:04:47;;;;;;;2.07;1.93;;;;;;;;;;5015851;28;20211;-85
2022/11/04 01:07:14;;;;;;;1.70;1.60;;;;;;;;;;5033169;28;20238;-84
2022/11/04 01:09:41;;;;;;;2.00;1.80;;;;;;;;;;5033432;28;20584;-84
2022/11/04 01:12:08;;;;;;;1.73;1.63;;;;;;;;;;5034842;28;20702;-83
2022/11/04 01:14:36;;;;;;;1.47;1.37;;;;;;;;;;5035154;28;20211;-85
2022/11/04 01:17:03;;;;;;;1.87;1.70;;;;;;;;;;5014958;28;20239;-85
2022/11/04 01:19:31;;;;;;;2.20;1.70;;;;;;;;;;5016988;28;20237;-84
2022/11/04 01:21:58;;;;;;;2.30;1.83;;;;;;;;;;5014948;28;20552;-84
2022/11/04 01:24:25;;;;;;;1.87;1.77;;;;;;;;;;5014952;28;20231;-84
2022/11/04 01:26:52;;;;;;;1.90;1.33;;;;;;;;;;5014589;28;20257;-85
2022/11/04 01:29:19;;;;;;;1.60;1.50;;;;;;;;;;5014569;28;20262;-85
2022/11/04 01:31:47;;;;;;;1.37;1.37;;;;;;;;;;5037691;28;20241;-84
2022/11/04 01:34:14;;;;;;;3.33;1.70;;;;;;;;;;5054804;28;20221;-84
2022/11/04 01:36:41;;;;;;;1.70;1.60;;;;;;;;;;5037179;28;20230;-85
2022/11/04 01:39:09;;;;;;;1.27;1.27;;;;;;;;;;5029489;28;20223;-85
2022/11/04 01:41:36;;;;;;;2.00;1.80;;;;;;;;;;5013975;28;20341;-84
2022/11/04 01:44:04;;;;;;;1.40;1.40;;;;;;;;;;5032873;28;20213;-85
2022/11/04 01:46:39;;;;;;;1.80;1.70;;;;;;;;;;5030158;28;20235;-84
2022/11/04 01:49:13;;;;;;;1.37;1.33;;;;;;;;;;5014017;28;20237;-84
2022/11/04 01:51:41;;;;;;;1.70;1.60;;;;;;;;;;5013928;28;20243;-84
2022/11/04 01:54:09;;;;;;;1.70;1.60;;;;;;;;;;5020824;28;20210;-84
2022/11/04 01:56:36;;;;;;;1.77;1.67;;;;;;;;;;5028803;28;20309;-84
2022/11/04 01:59:06;;;;;;;1.70;1.60;;;;;;;;;;5037652;28;20227;-83
2022/11/04 02:01:33;;;;;;;1.60;1.50;;;;;;;;;;5040673;28;20697;-84
2022/11/04 02:04:24;;;;;;;2.77;1.90;;;;;;;;;;5020217;28;20211;-83
2022/11/04 02:06:51;;;;;;;2.13;2.00;;;;;;;;;;5012544;28;20271;-84
2022/11/04 02:09:19;;;;;;;2.47;1.47;;;;;;;;;;5013249;28;20223;-82
2022/11/04 02:14:31;;;;;;;3.30;2.10;;;;;;;;;;5043252;28;20268;-83
2022/11/04 02:17:01;;;;;;;1.80;1.70;;;;;;;;;;5033305;28;20233;-84
2022/11/04 02:19:38;;;;;;;3.30;1.80;;;;;;;;;;5032002;28;20222;-83
2022/11/04 02:22:14;;;;;;;2.00;1.90;;;;;;;;;;5033479;28;20245;-83
2022/11/04 02:24:56;;;;;;;1.80;1.70;;;;;;;;;;5033371;28;20653;-83
2022/11/04 02:27:29;;;;;;;2.37;2.10;;;;;;;;;;5032591;28;20230;-83
2022/11/04 02:30:03;;;;;;;2.03;1.83;;;;;;;;;;5032740;28;20245;-83
2022/11/04 02:32:38;;;;;;;2.33;2.17;;;;;;;;;;5031960;28;20710;-83
2022/11/04 02:35:08;;;;;;;3.10;2.10;;;;;;;;;;5032945;28;20205;-83
2022/11/04 02:37:40;;;;;;;2.10;1.90;;;;;;;;;;5029762;28;20219;-84
2022/11/04 02:40:19;;;;;;;2.17;1.90;;;;;;;;;;5036007;28;20674;-83
2022/11/04 02:42:53;;;;;;;2.17;1.90;;;;;;;;;;5013596;28;20884;-83
2022/11/04 02:45:23;;;;;;;1.83;1.73;;;;;;;;;;5013053;28;20555;-84
2022/11/04 02:47:55;;;;;;;1.97;1.87;;;;;;;;;;5012213;28;20242;-83
2022/11/04 02:50:26;;;;;;;3.10;1.87;;;;;;;;;;5025654;28;20195;-83
2022/11/04 02:52:56;;;;;;;1.67;1.57;;;;;;;;;;5032387;28;20241;-84
2022/11/04 02:55:25;;;;;;;1.60;1.50;;;;;;;;;;5031489;28;20655;-83
2022/11/04 02:57:54;;;;;;;1.77;1.67;;;;;;;;;;5014677;28;20231;-83
2022/11/04 03:00:23;;;;;;;2.17;1.67;;;;;;;;;;5012994;28;20211;-83
2022/11/04 03:02:53;;;;;;;2.03;1.63;;;;;;;;;;5023932;28;20231;-83
2022/11/04 03:05:22;;;;;;;3.93;1.67;;;;;;;;;;5032231;28;20632;-83
2022/11/04 03:07:51;;;;;;;1.63;1.53;;;;;;;;;;5030882;28;20749;-83
2022/11/04 03:10:20;;;;;;;2.60;1.77;;;;;;;;;;5032672;28;20203;-83
2022/11/04 03:12:49;;;;;;;2.83;1.60;;;;;;;;;;5031725;28;20231;-83
2022/11/04 03:15:19;;;;;;;3.83;1.70;;;;;;;;;;5032103;28;20211;-83
2022/11/04 03:17:51;;;;;;;1.27;1.27;;;;;;;;;;5031611;28;20717;-84
2022/11/04 03:20:19;;;;;;;1.60;1.50;;;;;;;;;;5020232;28;20200;-83
2022/11/04 03:22:47;;;;;;;2.53;1.90;;;;;;;;;;5011591;28;20242;-83
2022/11/04 03:25:14;;;;;;;3.47;1.30;;;;;;;;;;5017338;28;20450;-83
2022/11/04 03:27:44;;;;;;;1.83;1.70;;;;;;;;;;5030629;28;20242;-84
2022/11/04 03:30:12;;;;;;;2.37;1.70;;;;;;;;;;5030776;28;20238;-83
2022/11/04 03:32:43;;;;;;;1.80;1.70;;;;;;;;;;5028581;28;20240;-83
2022/11/04 03:35:12;;;;;;;2.87;1.63;;;;;;;;;;5012161;28;20230;-83
2022/11/04 03:37:39;;;;;;;2.10;1.53;;;;;;;;;;5011239;28;20223;-83
2022/11/04 03:40:07;;;;;;;1.53;1.43;;;;;;;;;;5015908;28;20223;-83
2022/11/04 03:42:36;;;;;;;2.53;1.50;;;;;;;;;;5016254;28;20329;-84
2022/11/04 03:45:03;;;;;;;1.50;1.30;;;;;;;;;;5031856;28;20268;-83
2022/11/04 03:47:30;;;;;;;3.43;1.73;;;;;;;;;;5030848;28;20698;-83
2022/11/04 03:50:00;;;;;;;2.03;1.77;;;;;;;;;;5031848;28;20237;-83
2022/11/04 03:52:29;;;;;;;3.43;1.80;;;;;;;;;;5030884;28;20234;-84
2022/11/04 03:54:56;;;;;;;2.07;1.80;;;;;;;;;;5031752;28;20195;-83
2022/11/04 03:57:35;;;;;;;2.63;2.40;;;;;;;;;;5031087;28;20231;-82
2022/11/04 04:00:08;;;;;;;4.00;2.23;;;;;;;;;;5022818;28;20266;-84
2022/11/04 04:02:49;;;;;;;2.00;1.80;;;;;;;;;;5027146;28;20237;-83
2022/11/04 04:05:20;;;;;;;3.03;2.03;;;;;;;;;;5031630;28;20229;-83
2022/11/04 04:07:52;;;;;;;4.97;2.37;;;;;;;;;;5029854;28;20694;-83
2022/11/04 04:13:07;;;;;;;3.90;2.03;;;;;;;;;;5029263;28;20293;-84
2022/11/04 04:15:39;;;;;;;4.47;2.57;;;;;;;;;;5016308;28;20196;-84
2022/11/04 04:18:08;;;;;;;1.90;1.80;;;;;;;;;;5014362;28;20231;-84
2022/11/04 04:20:37;;;;;;;7.30;2.07;;;;;;;;;;5015179;28;20226;-84
2022/11/04 04:27:29;;;;;;;2.77;1.90;;;;;;;;;;5034618;28;20717;-84
2022/11/04 04:28:42;;;;;;;1.90;1.80;;;;;;;;;;5034013;28;20313;-83
2022/11/04 04:31:10;;;;;;;5.17;2.20;;;;;;;;;;5034630;28;20207;-83
2022/11/04 04:33:37;;;;;;;2.47;1.97;;;;;;;;;;5034166;28;20202;-83
2022/11/04 04:36:06;;;;;;;3.80;2.10;;;;;;;;;;5034111;28;20214;-83
2022/11/04 04:46:56;;;;;;;5.90;2.60;;;;;;;;;;5053947;28;20336;-84
2022/11/04 04:49:23;;;;;;;4.07;2.17;;;;;;;;;;5037314;28;20232;-83
2022/11/04 04:51:50;;;;;;;2.53;2.33;;;;;;;;;;5033817;28;20230;-84
2022/11/04 04:54:19;;;;;;;3.27;2.03;;;;;;;;;;5034505;28;20226;-83
2022/11/04 04:56:47;;;;;;;2.80;1.97;;;;;;;;;;5022494;28;20606;-84
2022/11/04 04:59:14;;;;;;;6.20;2.10;;;;;;;;;;5014038;28;20692;-83
2022/11/04 05:01:41;;;;;;;4.97;2.13;;;;;;;;;;5014634;28;20239;-84
2022/11/04 05:04:08;;;;;;;4.43;1.90;;;;;;;;;;5029126;28;20709;-83
2022/11/04 05:06:35;;;;;;;1.73;1.63;;;;;;;;;;5034153;28;20314;-84
2022/11/04 05:09:03;;;;;;;2.30;1.87;;;;;;;;;;5033885;28;20231;-83
2022/11/04 05:11:31;;;;;;;4.43;2.00;;;;;;;;;;5033386;28;20240;-82
2022/11/04 05:13:58;;;;;;;6.50;2.10;;;;;;;;;;5034115;28;20570;-82
2022/11/04 05:16:25;;;;;;;3.40;2.20;;;;;;;;;;5033619;28;20301;-83
2022/11/04 05:18:52;;;;;;;2.87;2.10;;;;;;;;;;5030288;28;20222;-83
2022/11/04 05:21:19;;;;;;;2.17;1.90;;;;;;;;;;5020442;28;20245;-83
2022/11/04 05:23:46;;;;;;;4.17;2.10;;;;;;;;;;5024495;28;20210;-84
2022/11/04 05:26:13;;;;;;;4.47;2.47;;;;;;;;;;5050508;28;20805;-84
2022/11/04 05:28:42;;;;;;;5.60;2.10;;;;;;;;;;5053433;28;20233;-84
2022/11/04 05:31:09;;;;;;;6.80;2.20;;;;;;;;;;5048858;28;20210;-82
2022/11/04 05:33:36;;;;;;;3.57;1.90;;;;;;;;;;5033495;28;20217;-83
2022/11/04 05:36:07;;;;;;;4.20;1.83;;;;;;;;;;5032992;28;20604;-83
2022/11/04 05:38:34;;;;;;;6.60;1.93;;;;;;;;;;5033129;28;20223;-83
2022/11/04 05:41:01;;;;;;;6.77;2.50;;;;;;;;;;5033205;28;20213;-83
2022/11/04 05:43:28;;;;;;;4.10;2.20;;;;;;;;;;5033417;28;20214;-83
2022/11/04 05:45:58;;;;;;;3.80;2.10;;;;;;;;;;5033254;28;20222;-83
2022/11/04 05:48:25;;;;;;;4.83;2.47;;;;;;;;;;5032207;28;20230;-83
2022/11/04 05:50:53;;;;;;;5.50;3.17;;;;;;;;;;5033378;28;20202;-83
2022/11/04 05:53:20;;;;;;;7.57;3.13;;;;;;;;;;5035706;28;20244;-83
2022/11/04 05:55:47;;;;;;;5.17;2.50;;;;;;;;;;5043679;28;20210;-84
2022/11/04 05:58:14;;;;;;;11.90;2.40;;;;;;;;;;5032156;28;20237;-84
2022/11/04 06:00:41;;;;;;;6.20;2.30;;;;;;;;;;5032948;28;20214;-83
2022/11/04 06:03:10;;;;;;;4.63;2.50;;;;;;;;;;5032782;28;20290;-84
2022/11/04 06:05:37;;;;;;;5.97;3.00;;;;;;;;;;5033317;28;20234;-84
2022/11/04 06:08:04;;;;;;;3.40;2.10;;;;;;;;;;5032371;28;20245;-83
2022/11/04 06:10:31;;;;;;;2.33;1.80;;;;;;;;;;5033157;28;20218;-83
2022/11/04 06:12:58;;;;;;;4.63;2.20;;;;;;;;;;5032434;28;20234;-84
2022/11/04 06:15:25;;;;;;;5.77;2.30;;;;;;;;;;5033075;28;20211;-83
2022/11/04 06:17:52;;;;;;;4.30;2.10;;;;;;;;;;5031725;28;20321;-83
2022/11/04 06:20:21;;;;;;;5.20;2.00;;;;;;;;;;5032643;28;20214;-83
2022/11/04 06:22:48;;;;;;;3.17;1.93;;;;;;;;;;5031857;28;20226;-83
2022/11/04 06:25:15;;;;;;;4.00;2.27;;;;;;;;;;5023961;28;20244;-84
2022/11/04 06:27:42;;;;;;;2.77;1.90;;;;;;;;;;5032384;28;20288;-85
2022/11/04 06:30:10;;;;;;;3.70;2.00;;;;;;;;;;5032204;28;20239;-84
2022/11/04 06:32:37;;;;;;;2.37;2.17;;;;;;;;;;5031670;28;20719;-84
2022/11/04 06:35:04;;;;;;;3.43;2.13;;;;;;;;;;5033195;28;20203;-85
2022/11/04 06:37:33;;;;;;;5.30;2.23;;;;;;;;;;5031986;28;20231;-87
2022/11/04 06:40:00;;;;;;;5.53;2.17;;;;;;;;;;5033032;28;20222;-84
2022/11/04 06:42:28;;;;;;;4.87;2.27;;;;;;;;;;5031991;28;20233;-84
2022/11/04 06:44:56;;;;;;;5.73;2.10;;;;;;;;;;5047143;28;20577;-84
2022/11/04 06:47:24;;;;;;;2.50;2.10;;;;;;;;;;5051980;28;20230;-84
2022/11/04 06:49:52;;;;;;;4.43;2.00;;;;;;;;;;5050508;28;20701;-85
2022/11/04 06:52:19;;;;;;;8.00;2.90;;;;;;;;;;5029622;28;20245;-84
2022/11/04 06:54:53;;;;;;;4.17;2.00;;;;;;;;;;5032468;28;20238;-85
2022/11/04 06:57:20;;;;;;;6.93;2.10;;;;;;;;;;5030528;28;20233;-85
2022/11/04 06:59:47;;;;;;;4.50;2.13;;;;;;;;;;5013209;28;20223;-85
2022/11/04 07:02:14;;;;;;;6.13;2.57;;;;;;;;;;5012795;28;20230;-85
2022/11/04 07:04:41;;;;;;;4.23;2.50;;;;;;;;;;5013405;28;20218;-85
2022/11/04 07:07:09;;;;;;;6.10;2.20;;;;;;;;;;5012976;28;20237;-85
2022/11/04 07:09:37;;;;;;;8.00;2.30;;;;;;;;;;5012496;28;20227;-84
2022/11/04 07:12:05;;;;;;;4.63;2.17;;;;;;;;;;5012210;28;20266;-82
2022/11/04 07:14:33;;;;;;;5.67;2.50;;;;;;;;;;5011919;28;20211;-82
2022/11/04 07:17:00;;;;;;;5.50;2.27;;;;;;;;;;5011452;28;20231;-81
2022/11/04 07:19:27;;;;;;;3.17;2.10;;;;;;;;;;5012033;28;20223;-81
2022/11/04 07:21:56;;;;;;;6.27;2.93;;;;;;;;;;5011812;28;20239;-82
2022/11/04 07:24:23;;;;;;;4.53;2.27;;;;;;;;;;5012367;28;20191;-82
2022/11/04 07:26:50;;;;;;;2.97;2.13;;;;;;;;;;5024300;28;20238;-82
2022/11/04 07:29:19;;;;;;;3.13;2.40;;;;;;;;;;5031487;28;20234;-82
2022/11/04 07:31:46;;;;;;;7.53;3.33;;;;;;;;;;5031543;28;20248;-82
2022/11/04 07:34:13;;;;;;;5.90;2.60;;;;;;;;;;5032195;28;20207;-82
2022/11/04 07:36:40;;;;;;;4.43;2.50;;;;;;;;;;5031676;28;20238;-83
2022/11/04 07:39:07;;;;;;;6.60;2.23;;;;;;;;;;5031801;28;20225;-82
2022/11/04 07:41:35;;;;;;;4.73;2.30;;;;;;;;;;5031316;28;20230;-83
2022/11/04 07:44:04;;;;;;;10.07;3.37;;;;;;;;;;5034743;28;20210;-83
2022/11/04 07:46:32;;;;;;;6.03;2.73;;;;;;;;;;5035285;28;20230;-83
2022/11/04 07:49:00;;;;;;;4.57;2.73;;;;;;;;;;5035354;28;20234;-82
2022/11/04 07:51:27;;;;;;;7.20;2.40;;;;;;;;;;5034963;28;20234;-83
2022/11/04 07:53:55;;;;;;;5.70;2.47;;;;;;;;;;5035605;28;20213;-82
2022/11/04 07:56:22;;;;;;;12.33;3.40;;;;;;;;;;5034950;28;20242;-83
2022/11/04 07:58:50;;;;;;;5.27;2.60;;;;;;;;;;5030782;28;20226;-83
2022/11/04 08:01:19;;;;;;;4.07;2.80;;;;;;;;;;5034626;28;20651;-83
2022/11/04 08:03:48;;;;;;;5.23;2.50;;;;;;;;;;5036760;28;20206;-82
2022/11/04 08:06:16;;;;;;;8.77;3.13;;;;;;;;;;5047250;28;20216;-83
2022/11/04 08:08:44;;;;;;;6.13;2.63;;;;;;;;;;5055074;28;20233;-83
2022/11/04 08:11:14;;;;;;;3.47;2.47;;;;;;;;;;5054413;28;20681;-83
2022/11/04 08:13:41;;;;;;;5.80;2.70;;;;;;;;;;5048863;28;20670;-82
2022/11/04 08:16:12;;;;;;;4.37;2.77;;;;;;;;;;5037624;28;20675;-82
2022/11/04 08:18:39;;;;;;;6.07;3.40;;;;;;;;;;5034544;28;20254;-83
2022/11/04 08:21:07;;;;;;;5.13;2.90;;;;;;;;;;5034587;28;20222;-83
2022/11/04 08:23:35;;;;;;;7.07;3.30;;;;;;;;;;5033245;28;20210;-82
2022/11/04 08:26:02;;;;;;;7.10;3.23;;;;;;;;;;5032467;28;20606;-82
2022/11/04 08:28:29;;;;;;;6.80;2.63;;;;;;;;;;5047215;28;20230;-82
2022/11/04 08:30:58;;;;;;;5.90;2.80;;;;;;;;;;5034817;28;20214;-83
2022/11/04 08:33:25;;;;;;;4.03;2.40;;;;;;;;;;5034235;28;20218;-82
2022/11/04 08:35:52;;;;;;;3.03;2.20;;;;;;;;;;5034665;28;20210;-83
2022/11/04 08:38:21;;;;;;;4.03;2.17;;;;;;;;;;5033574;28;20238;-82
2022/11/04 08:40:48;;;;;;;4.70;2.00;;;;;;;;;;5033931;28;20627;-83
2022/11/04 08:43:15;;;;;;;2.23;1.67;;;;;;;;;;5033767;28;20729;-83
2022/11/04 08:45:44;;;;;;;2.37;1.77;;;;;;;;;;5034216;28;20215;-82
2022/11/04 08:48:11;;;;;;;2.83;1.63;;;;;;;;;;5033274;28;20289;-92
2022/11/04 08:50:38;;;;;;;3.70;1.97;;;;;;;;;;5033946;28;20222;-83
2022/11/04 08:53:06;;;;;;;4.50;1.90;;;;;;;;;;5033707;28;20250;-83
2022/11/04 08:55:35;;;;;;;4.23;2.10;;;;;;;;;;5033439;28;20187;-83
2022/11/04 08:58:03;;;;;;;6.30;2.10;;;;;;;;;;5033414;28;20230;-83
2022/11/04 09:00:32;;;;;;;4.47;1.70;;;;;;;;;;5034214;28;20199;-84
2022/11/04 09:03:00;;;;;;;4.93;1.80;;;;;;;;;;5034613;28;20234;-86
2022/11/04 09:05:27;;;;;;;2.97;1.80;;;;;;;;;;5051559;28;20300;-86
2022/11/04 09:07:56;;;;;;;3.33;1.80;;;;;;;;;;5014359;28;20754;-86
2022/11/04 09:10:27;;;;;;;1.87;1.60;;;;;;;;;;5015172;28;20705;-86
2022/11/04 09:12:56;;;;;;;1.77;1.60;;;;;;;;;;5037889;28;20245;-85
2022/11/04 09:15:23;;;;;;;1.83;1.70;;;;;;;;;;5054496;28;20210;-85
2022/11/04 09:17:50;;;;;;;2.70;2.00;;;;;;;;;;5046402;28;20237;-86
2022/11/04 09:20:17;;;;;;;2.60;1.80;;;;;;;;;;5034138;28;20684;-84
2022/11/04 09:22:45;;;;;;;4.23;2.03;;;;;;;;;;5033643;28;20605;-83
2022/11/04 09:25:12;;;;;;;2.87;1.83;;;;;;;;;;5034030;28;20217;-83
2022/11/04 09:27:39;;;;;;;4.10;1.63;;;;;;;;;;5034750;28;20230;-83
2022/11/04 09:30:08;;;;;;;5.30;2.10;;;;;;;;;;5031979;28;20245;-83
2022/11/04 09:32:35;;;;;;;3.27;1.83;;;;;;;;;;5033902;28;20230;-83
2022/11/04 09:35:02;;;;;;;3.20;1.63;;;;;;;;;;5034458;28;20210;-86
2022/11/04 09:37:29;;;;;;;2.80;1.80;;;;;;;;;;5034453;28;20234;-86
2022/11/04 09:39:57;;;;;;;4.23;2.40;;;;;;;;;;5037073;28;20318;-85
2022/11/04 09:42:36;;;;;;;8.10;2.07;;;;;;;;;;5043908;28;20230;-85
2022/11/04 09:45:12;;;;;;;4.30;2.27;;;;;;;;;;5037196;28;20654;-85
2022/11/04 09:47:39;;;;;;;3.43;1.40;;;;;;;;;;5033078;28;20237;-86
2022/11/04 09:50:09;;;;;;;3.53;1.80;;;;;;;;;;5034399;28;20690;-86
2022/11/04 09:52:39;;;;;;;2.70;1.63;;;;;;;;;;5033579;28;20332;-83
2022/11/04 09:55:08;;;;;;;3.53;1.67;;;;;;;;;;5034124;28;20221;-85
2022/11/04 09:57:35;;;;;;;3.23;1.80;;;;;;;;;;5033919;28;20237;-86
2022/11/04 10:00:02;;;;;;;4.23;1.77;;;;;;;;;;5034448;28;20218;-85
2022/11/04 10:02:36;;;;;;;3.40;1.80;;;;;;;;;;5033048;28;20695;-84
2022/11/04 10:05:07;;;;;;;3.13;1.47;;;;;;;;;;5033463;28;20191;-82
2022/11/04 10:07:43;;;;;;;2.27;1.60;;;;;;;;;;5024559;28;20227;-85
2022/11/04 10:10:14;;;;;;;1.43;1.33;;;;;;;;;;5012896;28;20242;-84
2022/11/04 10:12:47;;;;;;;4.40;1.53;;;;;;;;;;5013065;28;20644;-83
2022/11/04 10:15:25;;;;;;;6.03;2.03;;;;;;;;;;5012851;28;20191;-83
2022/11/04 10:18:01;;;;;;;4.63;1.83;;;;;;;;;;5012514;28;20238;-83
2022/11/04 10:20:36;;;;;;;2.37;1.70;;;;;;;;;;5015086;28;20206;-84
2022/11/04 10:23:10;;;;;;;6.13;1.60;;;;;;;;;;5032141;28;20226;-85
2022/11/04 10:25:41;;;;;;;2.83;1.40;;;;;;;;;;5030956;28;20203;-84
2022/11/04 10:28:12;;;;;;;3.13;1.83;;;;;;;;;;5013049;28;20703;-86
2022/11/04 10:30:41;;;;;;;3.43;1.53;;;;;;;;;;5015699;28;20964;-87
2022/11/04 10:33:12;;;;;;;4.23;1.73;;;;;;;;;;5013695;28;20231;-86
2022/11/04 10:35:42;;;;;;;3.13;1.67;;;;;;;;;;5014194;28;20188;-85
2022/11/04 10:38:27;;;;;;;3.87;1.70;;;;;;;;;;5012123;28;20670;-86
2022/11/04 10:40:55;;;;;;;3.17;1.53;;;;;;;;;;5013981;28;20265;-87
2022/11/04 10:43:27;;;;;;;3.10;2.00;;;;;;;;;;5013614;28;20234;-86
2022/11/04 10:46:14;;;;;;;3.90;1.50;;;;;;;;;;5013979;28;20196;-85
2022/11/04 10:48:47;;;;;;;1.87;1.60;;;;;;;;;;5013640;28;20234;-86
2022/11/04 10:51:20;;;;;;;3.23;1.50;;;;;;;;;;5013744;28;20199;-87
2022/11/04 10:53:58;;;;;;;5.33;1.73;;;;;;;;;;5014000;28;20286;-87
2022/11/04 10:56:31;;;;;;;2.37;1.53;;;;;;;;;;5014067;28;20317;-87
2022/11/04 10:59:05;;;;;;;2.33;1.33;;;;;;;;;;5013442;28;20223;-86
2022/11/04 11:01:34;;;;;;;7.60;1.70;;;;;;;;;;5022493;28;20252;-86
2022/11/04 11:04:07;;;;;;;4.07;1.67;;;;;;;;;;5033473;28;20581;-86
2022/11/04 11:06:35;;;;;;;3.13;1.50;;;;;;;;;;5032917;28;20237;-85
2022/11/04 11:09:14;;;;;;;3.17;1.67;;;;;;;;;;5032885;28;20712;-86
2022/11/04 11:11:46;;;;;;;3.33;1.83;;;;;;;;;;5032942;28;20240;-86
2022/11/04 11:14:17;;;;;;;3.30;2.20;;;;;;;;;;5033231;28;20254;-85
2022/11/04 11:16:46;;;;;;;3.43;1.87;;;;;;;;;;5033161;28;20234;-86
2022/11/04 11:19:16;;;;;;;6.87;3.20;;;;;;;;;;5027459;28;20219;-86
2022/11/04 11:21:46;;;;;;;4.00;1.90;;;;;;;;;;5013059;28;20239;-85
2022/11/04 11:24:15;;;;;;;3.67;1.47;;;;;;;;;;5013394;28;20237;-85
2022/11/04 11:26:47;;;;;;;4.37;1.60;;;;;;;;;;5011996;28;20632;-82
2022/11/04 11:29:17;;;;;;;2.50;1.40;;;;;;;;;;5012744;28;20322;-83
2022/11/04 11:31:44;;;;;;;3.33;2.10;;;;;;;;;;5031690;28;20238;-83
2022/11/04 11:34:16;;;;;;;2.20;1.50;;;;;;;;;;5031427;28;20294;-83
2022/11/04 11:36:46;;;;;;;5.00;1.73;;;;;;;;;;5030948;28;20235;-84
2022/11/04 11:39:17;;;;;;;3.67;1.60;;;;;;;;;;5031429;28;20248;-83
2022/11/04 11:41:52;;;;;;;3.27;1.60;;;;;;;;;;5031427;28;20241;-83
2022/11/04 11:44:24;;;;;;;8.37;1.73;;;;;;;;;;5031742;28;20210;-84
2022/11/04 11:46:54;;;;;;;1.90;1.30;;;;;;;;;;5031826;28;20317;-85
2022/11/04 11:49:27;;;;;;;4.53;1.67;;;;;;;;;;5032038;28;20686;-90
2022/11/04 11:51:55;;;;;;;4.03;1.70;;;;;;;;;;5032027;28;20265;-84
2022/11/04 11:54:24;;;;;;;4.97;1.53;;;;;;;;;;5031913;28;20202;-85
2022/11/04 11:56:52;;;;;;;4.07;1.50;;;;;;;;;;5027182;28;20231;-84
2022/11/04 11:59:34;;;;;;;4.73;1.67;;;;;;;;;;5011956;28;20224;-84
2022/11/04 12:02:04;;;;;;;3.93;1.80;;;;;;;;;;5014891;28;20231;-84
2022/11/04 12:04:34;;;;;;;4.97;1.77;;;;;;;;;;5011588;28;20207;-84
2022/11/04 12:07:07;;;;;;;4.13;1.80;;;;;;;;;;5040450;28;20265;-83
2022/11/04 12:09:37;;;;;;;5.40;2.53;;;;;;;;;;5022772;28;20620;-83
2022/11/04 12:12:20;;;;;;;7.07;1.90;;;;;;;;;;5011417;28;20235;-82
2022/11/04 12:14:55;;;;;;;5.73;1.40;;;;;;;;;;5011795;28;20198;-83
2022/11/04 12:17:28;;;;;;;3.80;1.87;;;;;;;;;;5018492;28;20230;-83
2022/11/04 12:20:02;;;;;;;3.23;1.70;;;;;;;;;;5036985;28;20235;-84
2022/11/04 12:22:37;;;;;;;5.37;1.60;;;;;;;;;;5031313;28;20237;-86
2022/11/04 12:25:10;;;;;;;4.53;1.80;;;;;;;;;;5031730;28;20752;-85
2022/11/04 12:27:41;;;;;;;5.43;1.70;;;;;;;;;;5030948;28;20238;-84
2022/11/04 12:30:10;;;;;;;2.33;1.63;;;;;;;;;;5027693;28;20230;-84
2022/11/04 12:32:44;;;;;;;4.43;1.53;;;;;;;;;;5037926;28;20230;-85
2022/11/04 12:35:21;;;;;;;4.70;1.77;;;;;;;;;;5027934;28;20195;-84
2022/11/04 12:37:52;;;;;;;5.93;2.93;;;;;;;;;;5043848;28;20238;-83
2022/11/04 12:40:22;;;;;;;7.17;2.70;;;;;;;;;;5034457;28;20497;-85
2022/11/04 12:42:58;;;;;;;8.10;2.73;;;;;;;;;;5033946;28;20234;-84
2022/11/04 12:45:30;;;;;;;5.47;2.20;;;;;;;;;;5043446;28;20203;-84
2022/11/04 12:48:00;;;;;;;7.13;2.17;;;;;;;;;;5034169;28;20239;-82
2022/11/04 12:50:39;;;;;;;7.37;2.00;;;;;;;;;;5034393;28;20218;-84
2022/11/04 12:53:14;;;;;;;4.77;1.80;;;;;;;;;;5034144;28;20234;-84
2022/11/04 12:55:45;;;;;;;6.37;1.63;;;;;;;;;;5034433;28;20218;-83
2022/11/04 12:58:24;;;;;;;5.77;2.10;;;;;;;;;;5030496;28;20261;-83
2022/11/04 13:00:55;;;;;;;7.50;2.47;;;;;;;;;;5054449;28;20499;-84
2022/11/04 13:03:29;;;;;;;5.60;1.73;;;;;;;;;;5053545;28;20707;-83
2022/11/04 13:06:00;;;;;;;5.50;1.73;;;;;;;;;;5054145;28;20214;-83
2022/11/04 13:08:30;;;;;;;4.87;1.67;;;;;;;;;;5046678;28;20232;-83
2022/11/04 13:10:59;;;;;;;2.80;2.20;;;;;;;;;;5036619;28;20234;-82
2022/11/04 13:13:32;;;;;;;4.00;1.90;;;;;;;;;;5040786;28;20675;-83
2022/11/04 13:16:02;;;;;;;5.40;1.50;;;;;;;;;;5039942;28;20248;-83
2022/11/04 13:18:31;;;;;;;3.10;1.83;;;;;;;;;;5053889;28;20230;-82
2022/11/04 13:21:03;;;;;;;5.00;1.80;;;;;;;;;;5053123;28;20198;-83
2022/11/04 13:23:35;;;;;;;6.20;1.87;;;;;;;;;;5036105;28;20199;-83
2022/11/04 13:26:03;;;;;;;3.17;1.63;;;;;;;;;;5032955;28;20206;-85
2022/11/04 13:28:30;;;;;;;3.87;1.70;;;;;;;;;;5033676;28;20238;-83
2022/11/04 13:31:03;;;;;;;2.93;1.90;;;;;;;;;;5033241;28;20219;-83
2022/11/04 13:33:34;;;;;;;1.77;1.43;;;;;;;;;;5015876;28;20223;-83
2022/11/04 13:36:08;;;;;;;3.43;1.90;;;;;;;;;;5024648;28;20197;-83
2022/11/04 13:38:36;;;;;;;2.93;1.73;;;;;;;;;;5033220;28;20229;-84
2022/11/04 13:41:15;;;;;;;2.83;1.63;;;;;;;;;;5013202;28;20203;-83
2022/11/04 13:43:48;;;;;;;3.83;1.63;;;;;;;;;;5013807;28;20188;-82
2022/11/04 13:46:27;;;;;;;2.97;1.70;;;;;;;;;;5029756;28;20207;-83
2022/11/04 13:48:58;;;;;;;2.50;1.67;;;;;;;;;;5033010;28;20253;-83
2022/11/04 13:51:34;;;;;;;3.90;1.80;;;;;;;;;;5032036;28;20618;-83
2022/11/04 13:54:01;;;;;;;2.60;1.87;;;;;;;;;;5033316;28;20194;-84
2022/11/04 13:56:29;;;;;;;2.27;1.40;;;;;;;;;;5032161;28;20727;-83
2022/11/04 13:58:58;;;;;;;3.20;1.67;;;;;;;;;;5047483;28;20316;-83
2022/11/04 14:01:29;;;;;;;4.73;2.17;;;;;;;;;;5052437;28;20225;-86
2022/11/04 14:04:02;;;;;;;2.13;1.60;;;;;;;;;;5016552;28;20672;-86
2022/11/04 14:06:48;;;;;;;1.60;1.50;;;;;;;;;;5012739;28;20234;-85
2022/11/04 14:09:34;;;;;;;2.10;1.57;;;;;;;;;;5012945;28;20233;-84
2022/11/04 14:12:20;;;;;;;2.57;1.60;;;;;;;;;;5028262;28;20254;-83
2022/11/04 14:14:50;;;;;;;2.93;1.60;;;;;;;;;;5033092;28;20211;-83
2022/11/04 14:17:32;;;;;;;2.20;1.50;;;;;;;;;;5031930;28;20238;-83
2022/11/04 14:20:00;;;;;;;2.30;1.83;;;;;;;;;;5015359;28;20230;-83
2022/11/04 14:22:42;;;;;;;5.20;1.97;;;;;;;;;;5012814;28;20247;-83
2022/11/04 14:25:27;;;;;;;6.23;1.93;;;;;;;;;;5029904;28;20206;-83
2022/11/04 14:27:55;;;;;;;2.70;1.70;;;;;;;;;;5032163;28;20238;-84
2022/11/04 14:30:36;;;;;;;4.30;1.87;;;;;;;;;;5033754;28;20215;-87
2022/11/04 14:33:05;;;;;;;3.80;1.80;;;;;;;;;;5032667;28;20309;-87
2022/11/04 14:35:33;;;;;;;5.20;2.30;;;;;;;;;;5030658;28;20195;-87
2022/11/04 14:38:03;;;;;;;3.57;2.40;;;;;;;;;;5027796;28;20226;-85
2022/11/04 14:40:47;;;;;;;6.30;2.40;;;;;;;;;;5033944;28;20199;-86
2022/11/04 14:43:19;;;;;;;2.90;2.13;;;;;;;;;;5032852;28;20240;-86
2022/11/04 14:45:46;;;;;;;3.20;2.30;;;;;;;;;;5033152;28;20207;-85
2022/11/04 14:48:18;;;;;;;4.00;2.30;;;;;;;;;;5032664;28;20698;-85
2022/11/04 14:50:46;;;;;;;3.47;2.30;;;;;;;;;;5033329;28;20223;-84
2022/11/04 14:53:17;;;;;;;3.07;2.47;;;;;;;;;;5031533;28;20246;-84
2022/11/04 14:55:46;;;;;;;3.93;2.30;;;;;;;;;;5032893;28;20219;-83
2022/11/04 14:58:23;;;;;;;3.60;2.60;;;;;;;;;;5031606;28;20284;-85
2022/11/04 15:00:54;;;;;;;4.40;2.50;;;;;;;;;;5037681;28;20210;-87
2022/11/04 15:03:24;;;;;;;3.77;2.10;;;;;;;;;;5052574;28;20724;-85
2022/11/04 15:05:52;;;;;;;4.30;2.33;;;;;;;;;;5053636;28;20225;-85
2022/11/04 15:08:26;;;;;;;4.03;2.40;;;;;;;;;;5053106;28;20268;-84
2022/11/04 15:11:03;;;;;;;2.53;2.23;;;;;;;;;;5048592;28;20230;-85
2022/11/04 15:13:33;;;;;;;3.60;2.60;;;;;;;;;;5030320;28;20682;-84
2022/11/04 15:16:01;;;;;;;3.20;2.20;;;;;;;;;;5037000;28;20185;-83
2022/11/04 15:18:29;;;;;;;3.30;2.30;;;;;;;;;;5051575;28;20216;-84
2022/11/04 15:20:58;;;;;;;3.47;2.37;;;;;;;;;;5037485;28;20245;-85
2022/11/04 15:23:27;;;;;;;3.03;2.30;;;;;;;;;;5031428;28;20292;-84
2022/11/04 15:25:55;;;;;;;3.60;2.50;;;;;;;;;;5031958;28;20203;-83
2022/11/04 15:28:24;;;;;;;4.13;2.70;;;;;;;;;;5030660;28;20238;-83
2022/11/04 15:31:05;;;;;;;6.63;3.20;;;;;;;;;;5031458;28;20218;-84
2022/11/04 15:33:36;;;;;;;4.50;3.27;;;;;;;;;;5031222;28;20211;-83